الصفحة الرئيسية
METAR-TAF:

METAR-TAF

مطار :

نيجنفارتوفسك, روسيا

دائرة عرض: 60-56N, خط طول: 076-29E, ارتفاع: 54 متر

مراقبة الطقس الحالي

تاريخ ووقت الإصدار 17 دقيقة قبل الساعة 14:00UTC
ريح 12 عقدة من الغرب
درجة الحرارة -6°درجة مئوية
الرطوبة 93%
ضغط 1012 hPa
الرؤية 10 كم أو أكثر
ملبد بالغيوم على ارتفاع 900 قدم

METAR: USNN 141400Z 26006MPS 9999 OVC009 M06/M07 Q1012 R21/39//38 NOSIG RMK QFE754

زمن: 19:17 (14:17 UTC)

توقعات

تاريخ ووقت الإصدار 3ساعات و 17 دقيقة قبل الساعة 11:00UTC
التوقعات صالحة من14 الساعة 12 UTC إلى 15 الساعة 12 UTC
ريح 10 عقدة من الغرب تتزايد حتى 23 عقدة
الرؤية: 5000 متر
غيوم مفككة على ارتفاع 700 قدم
غيوم متفرقة على ارتفاع 1500 قدم, مزنة ركامية.
زخات ثلجية خفيفة
مؤقت
من 14 الساعة 12 UTC إلى 14 الساعة 18 UTC
ريح 14 عقدة من الغرب/الجنوب الغربي تتزايد حتى 27 عقدة
من 15 الساعة 0600 UTC
ريح 6 عقدة من الغرب
الرؤية 10 كم أو أكثر
غيوم مفككة على ارتفاع 1500 قدم
ملبد بالغيوم على ارتفاع 5000 قدم

TAF: USNN 141100Z 1412/1512 26005G12MPS 5000 -SHSN BKN007 SCT015CB TEMPO 1412/1418 25007G14MPS FM150600 28003MPS 9999 BKN015 OVC050

أرصاد الطقس والتوقعات من أكثر من 4000 مطار (تقارير الطقس للمطار METAR والتنبؤ بالطقس بالمطارTAF).

المحطات المتاحة هي النقط الصفراء والحمراء على الخريطة.

حرك المؤشر فوق النقطة لمعرفة اسم المحطة.

ثم انقر لمعرفة أرصاد وتوقعات الطقس.

لتغيير الخارطة: اضغط على الأزرار الخضراء مع رمز الصليب الأسود للتكبير. على الزر الأخضر مع شرطة للتصغير، أو على الأسهم الخضراء للخرائط المجاورة.


METAR-TAF: